Time;durP1;ratioP1;P1;durP2;ratioP2;P2;SDS_P1;SDS_P2;PMS_P1;PMS_P2;Temp;Humidity;BMP_temperature;BMP_pressure;BME280_temperature;BME280_humidity;BME280_pressure;Samples;Min_cycle;Max_cycle;Signal;HPM_P1;HPM_P2
2023/11/09 00:01:51;;;;;;;0.40;0.40;;;;;;;10.51;100.00;100021.81;10338173;28;20121;-73
2023/11/09 00:06:52;;;;;;;0.50;0.50;;;;;;;10.51;100.00;100010.97;10337616;28;20042;-70
2023/11/09 00:11:52;;;;;;;1.25;1.25;;;;;;;10.55;100.00;100020.31;10337471;28;20031;-71
2023/11/09 00:16:53;;;;;;;0.50;0.50;;;;;;;10.55;100.00;100008.66;10320164;28;20034;-71
2023/11/09 00:21:53;;;;;;;0.50;0.50;;;;;;;10.64;100.00;100010.06;10338541;28;20105;-72
2023/11/09 00:26:54;;;;;;;0.50;0.50;;;;;;;10.60;100.00;100006.13;10339047;28;20414;-72
2023/11/09 00:31:54;;;;;;;0.47;0.47;;;;;;;10.60;100.00;100012.38;10337418;28;20084;-71
2023/11/09 00:36:56;;;;;;;1.13;1.13;;;;;;;10.68;100.00;100011.28;10337574;28;20038;-72
2023/11/09 00:41:57;;;;;;;0.40;0.40;;;;;;;10.62;100.00;99993.19;10338965;28;20039;-72
2023/11/09 00:46:57;;;;;;;0.73;0.73;;;;;;;10.66;100.00;100000.66;10337366;28;20038;-72
2023/11/09 00:51:58;;;;;;;1.52;1.50;;;;;;;10.65;100.00;99999.00;10337243;28;20045;-72
2023/11/09 00:56:58;;;;;;;0.40;0.40;;;;;;;10.75;100.00;100019.34;10336422;28;20030;-73
2023/11/09 01:01:58;;;;;;;0.70;0.70;;;;;;;10.71;100.00;100027.06;10335792;28;20170;-72
2023/11/09 01:07:00;;;;;;;0.40;0.40;;;;;;;10.53;100.00;100029.69;10336220;28;20056;-72
2023/11/09 01:12:00;;;;;;;0.60;0.60;;;;;;;10.34;100.00;100036.88;10319576;28;20042;-72
2023/11/09 01:17:00;;;;;;;0.40;0.40;;;;;;;10.28;100.00;100044.03;10338848;28;20091;-70
2023/11/09 01:22:01;;;;;;;0.40;0.40;;;;;;;10.22;100.00;100036.75;10317615;28;20038;-71
2023/11/09 01:27:01;;;;;;;0.40;0.40;;;;;;;10.21;100.00;100010.72;10336657;28;20049;-71
2023/11/09 01:32:02;;;;;;;0.40;0.40;;;;;;;10.14;100.00;99950.41;10335139;28;20034;-73
2023/11/09 01:37:03;;;;;;;0.45;0.45;;;;;;;9.94;100.00;99912.66;10335272;28;20458;-73
2023/11/09 01:42:04;;;;;;;0.47;0.47;;;;;;;9.79;100.00;99934.59;10334883;28;20034;-72
2023/11/09 01:47:05;;;;;;;0.60;0.60;;;;;;;9.80;100.00;100003.03;10317192;28;20056;-72
2023/11/09 01:52:06;;;;;;;0.50;0.50;;;;;;;9.88;100.00;100013.59;10339901;28;20400;-73
2023/11/09 01:57:06;;;;;;;0.40;0.40;;;;;;;9.95;100.00;100020.63;10334589;28;20070;-72
2023/11/09 02:02:07;;;;;;;0.40;0.40;;;;;;;10.01;100.00;100025.16;10333547;28;20042;-73
2023/11/09 02:07:08;;;;;;;0.30;0.30;;;;;;;10.01;100.00;100011.66;10316386;28;20034;-70
2023/11/09 02:12:08;;;;;;;0.40;0.40;;;;;;;10.08;100.00;100018.91;10316126;28;20042;-72
2023/11/09 02:17:09;;;;;;;0.50;0.50;;;;;;;10.09;100.00;100007.88;10334735;28;20038;-71
2023/11/09 02:22:09;;;;;;;0.50;0.50;;;;;;;10.12;100.00;100002.03;10284289;28;20041;-71
2023/11/09 02:27:09;;;;;;;0.40;0.40;;;;;;;10.13;100.00;100000.97;10316971;28;20042;-73
2023/11/09 02:32:10;;;;;;;0.40;0.40;;;;;;;10.09;100.00;99994.34;10348105;28;20042;-75
2023/11/09 02:37:10;;;;;;;0.38;0.38;;;;;;;10.08;100.00;99991.84;10319263;28;20374;-72
2023/11/09 02:42:11;;;;;;;0.50;0.50;;;;;;;10.08;100.00;99978.31;10332628;28;20136;-71
2023/11/09 02:52:21;;;;;;;0.52;0.52;;;;;;;10.06;100.00;100000.19;11531679;23;20086;-74
2023/11/09 02:57:22;;;;;;;0.40;0.40;;;;;;;10.05;100.00;100016.63;10369049;28;20065;-74
2023/11/09 03:02:22;;;;;;;1.45;1.45;;;;;;;10.01;100.00;100000.81;10370067;28;20197;-74
2023/11/09 03:07:22;;;;;;;0.40;0.40;;;;;;;10.07;100.00;100004.53;10371534;28;20030;-74
2023/11/09 03:12:23;;;;;;;0.50;0.50;;;;;;;10.05;100.00;99995.84;10370487;28;20065;-74
2023/11/09 03:17:23;;;;;;;8.98;2.40;;;;;;;10.02;100.00;99988.97;10370873;28;20034;-73
2023/11/09 03:22:24;;;;;;;1.42;1.42;;;;;;;10.01;100.00;100008.13;10368751;28;20555;-74
2023/11/09 03:27:24;;;;;;;0.52;0.52;;;;;;;10.02;100.00;100015.22;10370299;28;20041;-74
2023/11/09 03:32:24;;;;;;;0.45;0.45;;;;;;;10.01;100.00;100017.06;10372541;28;20038;-74
2023/11/09 03:37:26;;;;;;;0.40;0.40;;;;;;;9.99;100.00;100027.28;10370480;28;20049;-74
2023/11/09 03:42:27;;;;;;;4.82;1.40;;;;;;;9.98;100.00;100020.19;10370724;28;20076;-75
2023/11/09 03:47:27;;;;;;;0.40;0.40;;;;;;;9.96;100.00;100016.88;10370361;28;20408;-74
2023/11/09 03:52:28;;;;;;;0.40;0.40;;;;;;;10.01;100.00;100013.53;10371956;28;20058;-74
2023/11/09 03:57:28;;;;;;;0.50;0.50;;;;;;;9.99;100.00;100018.34;10368724;28;20086;-74
2023/11/09 04:02:28;;;;;;;0.45;0.45;;;;;;;9.95;100.00;100011.69;10369972;28;20115;-74
2023/11/09 04:07:30;;;;;;;0.40;0.40;;;;;;;9.91;100.00;100015.88;10369481;28;20030;-74
2023/11/09 04:12:30;;;;;;;0.30;0.30;;;;;;;9.78;100.00;100025.69;10370474;28;20068;-74
2023/11/09 04:17:31;;;;;;;1.15;1.15;;;;;;;9.73;100.00;100022.81;10370290;28;20444;-74
2023/11/09 04:22:32;;;;;;;0.80;0.80;;;;;;;9.72;100.00;100026.53;10368634;28;20034;-74
2023/11/09 04:27:34;;;;;;;0.93;0.93;;;;;;;9.72;100.00;100014.91;10373470;28;20389;-74
2023/11/09 04:32:34;;;;;;;0.85;0.85;;;;;;;9.69;100.00;100020.72;10377410;28;20045;-74
2023/11/09 04:37:38;;;;;;;1.85;1.83;;;;;;;9.75;100.00;100025.28;10375749;28;20042;-74
2023/11/09 04:42:39;;;;;;;0.50;0.50;;;;;;;9.76;100.00;100019.69;10377776;28;20081;-74
2023/11/09 04:47:43;;;;;;;1.20;1.20;;;;;;;9.69;100.00;100012.63;10376441;28;20077;-74
2023/11/09 04:52:44;;;;;;;20.65;3.50;;;;;;;9.66;100.00;100015.75;10375049;28;20058;-74
2023/11/09 05:08:23;;;;;;;0.30;0.30;;;;;;;9.65;100.00;100009.53;10375298;28;20563;-74
2023/11/09 05:13:23;;;;;;;2.05;1.95;;;;;;;9.62;100.00;100009.13;10375424;28;20041;-74
2023/11/09 05:18:24;;;;;;;0.50;0.50;;;;;;;9.48;100.00;100019.97;10375299;28;20038;-73
2023/11/09 05:23:25;;;;;;;0.77;0.77;;;;;;;9.35;100.00;100035.38;10373883;28;20395;-73
2023/11/09 05:28:26;;;;;;;0.40;0.40;;;;;;;9.27;100.00;100039.97;10373777;28;20030;-73
2023/11/09 05:33:26;;;;;;;0.60;0.60;;;;;;;9.21;100.00;100037.25;10374643;28;20069;-72
2023/11/09 05:38:27;;;;;;;0.45;0.45;;;;;;;9.13;100.00;100037.50;10372385;28;20444;-73
2023/11/09 05:43:27;;;;;;;1.20;1.20;;;;;;;9.01;100.00;100037.28;10373488;28;20041;-72
2023/11/09 05:48:28;;;;;;;0.40;0.40;;;;;;;8.95;100.00;100046.22;10372926;28;20049;-73
2023/11/09 05:53:29;;;;;;;0.30;0.30;;;;;;;8.81;100.00;100040.00;10374097;28;20054;-71
2023/11/09 05:58:29;;;;;;;0.73;0.73;;;;;;;8.73;100.00;100048.28;10355359;28;20076;-72
2023/11/09 06:03:29;;;;;;;0.30;0.30;;;;;;;8.63;100.00;100048.69;10372915;28;20492;-71
2023/11/09 06:08:30;;;;;;;0.47;0.47;;;;;;;8.50;100.00;100054.91;10372732;28;20033;-72
2023/11/09 06:13:30;;;;;;;4.00;3.80;;;;;;;8.38;100.00;100061.91;10372697;28;20200;-72
2023/11/09 06:18:32;;;;;;;1.30;1.30;;;;;;;8.24;100.00;100065.59;10370315;28;20048;-72
2023/11/09 06:23:33;;;;;;;0.65;0.65;;;;;;;8.12;100.00;100055.38;10372198;28;20080;-72
2023/11/09 06:28:33;;;;;;;0.47;0.47;;;;;;;7.96;100.00;100053.03;10371029;28;20045;-72
2023/11/09 06:33:34;;;;;;;0.68;0.68;;;;;;;7.78;100.00;100052.75;10371739;28;20401;-72
2023/11/09 06:38:35;;;;;;;0.85;0.85;;;;;;;7.75;100.00;100061.22;10372261;28;20061;-72
2023/11/09 06:43:36;;;;;;;0.40;0.40;;;;;;;7.76;100.00;100073.69;10371404;28;20499;-72
2023/11/09 06:48:36;;;;;;;0.50;0.50;;;;;;;7.75;100.00;100074.72;10371363;28;20111;-73
2023/11/09 06:53:37;;;;;;;0.50;0.50;;;;;;;7.72;100.00;100067.03;10371036;28;20436;-73
2023/11/09 06:58:37;;;;;;;1.30;1.30;;;;;;;7.61;100.00;100071.94;10370873;28;20068;-72
2023/11/09 07:03:38;;;;;;;0.55;0.55;;;;;;;7.53;100.00;100082.03;10369993;28;20520;-72
2023/11/09 07:08:38;;;;;;;0.55;0.55;;;;;;;7.49;100.00;100091.56;10370297;28;20082;-72
2023/11/09 07:13:39;;;;;;;2.17;2.05;;;;;;;7.53;100.00;100092.81;10370446;28;20041;-72
2023/11/09 07:18:40;;;;;;;6.18;5.55;;;;;;;7.68;100.00;100094.38;10370386;28;20040;-72
2023/11/09 07:23:41;;;;;;;1.15;1.15;;;;;;;7.83;100.00;100091.56;10370574;28;20046;-72
2023/11/09 07:28:42;;;;;;;0.43;0.43;;;;;;;7.98;100.00;100079.81;10369124;28;20038;-72
2023/11/09 07:33:44;;;;;;;1.70;1.60;;;;;;;8.31;100.00;100098.81;10369393;28;20412;-73
2023/11/09 07:38:44;;;;;;;0.55;0.55;;;;;;;8.82;100.00;100093.78;10371481;28;20038;-73
2023/11/09 07:43:45;;;;;;;0.55;0.55;;;;;;;9.31;100.00;100099.81;10370030;28;20381;-72
2023/11/09 07:48:45;;;;;;;0.73;0.70;;;;;;;9.80;100.00;100097.66;10368910;28;20124;-73
2023/11/09 07:53:46;;;;;;;0.50;0.50;;;;;;;10.06;100.00;100096.75;10352093;28;20137;-74
2023/11/09 07:58:46;;;;;;;2.80;2.70;;;;;;;9.72;100.00;100098.72;10369369;28;20483;-73
2023/11/09 08:03:47;;;;;;;1.42;1.42;;;;;;;9.80;100.00;100093.09;10375157;28;20136;-72
2023/11/09 08:08:48;;;;;;;1.33;1.23;;;;;;;9.39;100.00;100088.78;10376990;28;20038;-72
2023/11/09 08:13:48;;;;;;;4.43;4.10;;;;;;;9.37;100.00;100082.75;10378129;28;20045;-72
2023/11/09 08:18:48;;;;;;;0.68;0.68;;;;;;;9.73;100.00;100086.84;10376216;28;20469;-72
2023/11/09 08:23:49;;;;;;;28.55;5.28;;;;;;;9.85;100.00;100093.25;10376428;28;20117;-72
2023/11/09 08:28:49;;;;;;;0.45;0.45;;;;;;;9.86;100.00;100094.94;10376023;28;20038;-72
2023/11/09 08:33:50;;;;;;;0.57;0.57;;;;;;;10.01;100.00;100089.25;10376178;28;20038;-73
2023/11/09 08:38:50;;;;;;;0.50;0.50;;;;;;;10.24;100.00;100089.59;10376666;28;20182;-72
2023/11/09 08:43:50;;;;;;;0.50;0.50;;;;;;;10.46;100.00;100083.88;10374680;28;20057;-72
2023/11/09 08:48:51;;;;;;;2.00;1.90;;;;;;;10.38;100.00;100087.69;10376034;28;20461;-72
2023/11/09 08:53:52;;;;;;;2.25;2.15;;;;;;;10.42;100.00;100090.78;10374676;28;20073;-72
2023/11/09 08:58:52;;;;;;;0.50;0.50;;;;;;;10.31;100.00;100081.47;10374832;28;20105;-72
2023/11/09 09:03:53;;;;;;;0.45;0.45;;;;;;;10.35;100.00;100071.03;10375011;28;20092;-72
2023/11/09 09:08:55;;;;;;;0.82;0.82;;;;;;;10.36;100.00;100070.00;10373537;28;20461;-72
2023/11/09 09:13:57;;;;;;;1.90;1.80;;;;;;;11.02;100.00;100082.28;10374764;28;20046;-72
2023/11/09 09:18:58;;;;;;;0.57;0.57;;;;;;;11.27;100.00;100066.84;10373879;28;20041;-72
2023/11/09 09:23:58;;;;;;;0.60;0.60;;;;;;;11.48;100.00;100051.19;10374490;28;20435;-72
2023/11/09 09:28:59;;;;;;;0.60;0.60;;;;;;;11.44;100.00;100041.88;10375766;28;20125;-72
2023/11/09 09:34:07;;;;;;;1.63;1.52;;;;;;;11.52;100.00;100041.56;10374338;28;20045;-71
2023/11/09 09:39:08;;;;;;;0.50;0.50;;;;;;;11.32;100.00;100045.31;10374251;28;20038;-72
2023/11/09 09:44:14;;;;;;;0.77;0.75;;;;;;;11.11;100.00;100068.22;10373655;28;20044;-71
2023/11/09 09:49:14;;;;;;;0.50;0.50;;;;;;;10.94;100.00;100062.53;10356941;28;20032;-71
2023/11/09 09:54:16;;;;;;;0.60;0.60;;;;;;;10.97;100.00;100072.09;10371415;28;20129;-70
2023/11/09 09:59:18;;;;;;;2.55;2.45;;;;;;;11.24;100.00;100071.88;10371554;28;20382;-70
2023/11/09 10:04:18;;;;;;;0.45;0.45;;;;;;;11.28;100.00;100067.66;10373131;28;20033;-70
2023/11/09 10:09:24;;;;;;;0.60;0.60;;;;;;;11.24;100.00;100067.28;10371969;28;20037;-71
2023/11/09 10:14:28;;;;;;;0.50;0.50;;;;;;;11.43;100.00;100064.63;10373136;28;20480;-70
2023/11/09 10:19:28;;;;;;;0.60;0.60;;;;;;;11.52;100.00;100055.13;10372000;28;20472;-71
2023/11/09 10:24:29;;;;;;;4.80;4.40;;;;;;;11.29;100.00;100070.13;10371089;28;20038;-71
2023/11/09 10:29:29;;;;;;;0.43;0.43;;;;;;;11.26;100.00;100065.16;10354288;28;20066;-70
2023/11/09 10:34:30;;;;;;;0.40;0.40;;;;;;;11.15;100.00;100060.47;10370304;28;20060;-71
2023/11/09 10:39:30;;;;;;;0.40;0.40;;;;;;;11.20;100.00;100057.94;10371686;28;20037;-70
2023/11/09 10:44:31;;;;;;;0.95;0.95;;;;;;;11.26;100.00;100043.47;10372223;28;20076;-71
2023/11/09 10:49:31;;;;;;;0.50;0.50;;;;;;;11.34;100.00;100035.06;10370070;28;20045;-70
2023/11/09 10:54:32;;;;;;;1.23;1.23;;;;;;;11.25;100.00;100022.88;10370907;28;20077;-70
2023/11/09 10:59:40;;;;;;;21.45;4.78;;;;;;;11.26;100.00;100016.38;10371275;28;20068;-70
2023/11/09 11:04:41;;;;;;;18.55;4.80;;;;;;;11.11;100.00;100010.50;10370762;28;20077;-70
2023/11/09 11:09:44;;;;;;;12.18;4.35;;;;;;;11.12;100.00;99996.72;10370745;28;20118;-70
2023/11/09 11:14:46;;;;;;;11.15;4.47;;;;;;;11.03;100.00;99994.53;10371581;28;20034;-70
2023/11/09 11:20:32;;;;;;;16.73;6.15;;;;;;;10.94;100.00;99970.44;10369633;28;20038;-70
2023/11/09 11:25:38;;;;;;;15.20;5.35;;;;;;;10.77;100.00;99958.50;10332976;28;20404;-70
2023/11/09 11:30:39;;;;;;;14.75;5.13;;;;;;;10.68;100.00;99941.69;10369023;28;20049;-70
2023/11/09 11:35:46;;;;;;;24.02;5.22;;;;;;;10.69;100.00;99947.97;10371691;28;20527;-70
2023/11/09 11:40:50;;;;;;;23.85;5.35;;;;;;;10.93;100.00;99936.25;10378310;28;20168;-71
2023/11/09 11:45:53;;;;;;;22.55;5.72;;;;;;;11.05;100.00;99930.94;10377818;28;20086;-70
2023/11/09 11:51:06;;;;;;;19.92;3.38;;;;;;;11.27;100.00;99915.06;10378480;28;21139;-71
2023/11/09 11:56:10;;;;;;;15.60;5.25;;;;;;;11.13;100.00;99905.41;10378585;28;20068;-70
2023/11/09 12:01:20;;;;;;;10.63;3.97;;;;;;;10.87;100.00;99906.53;10376500;28;20441;-70
2023/11/09 12:06:22;;;;;;;6.90;4.43;;;;;;;10.92;100.00;99910.22;10378252;28;20038;-70
2023/11/09 12:11:24;;;;;;;13.02;3.83;;;;;;;10.98;100.00;99911.22;10376097;28;20113;-70
2023/11/09 12:16:24;;;;;;;8.80;3.95;;;;;;;10.87;100.00;99910.06;10377472;28;20420;-70
2023/11/09 12:21:27;;;;;;;11.77;3.53;;;;;;;10.72;100.00;99906.91;10375235;28;20128;-70
2023/11/09 12:26:35;;;;;;;14.52;5.32;;;;;;;10.70;100.00;99898.16;10359743;28;20117;-70
2023/11/09 12:31:36;;;;;;;8.02;3.75;;;;;;;10.62;100.00;99888.44;10376247;28;20029;-71
2023/11/09 12:36:43;;;;;;;14.95;5.97;;;;;;;10.57;100.00;99882.03;10376426;28;20098;-70
2023/11/09 12:41:44;;;;;;;14.80;4.78;;;;;;;10.56;100.00;99877.66;10374888;28;20038;-70
2023/11/09 12:46:44;;;;;;;17.30;5.20;;;;;;;10.60;100.00;99870.78;10376695;28;20041;-71
2023/11/09 12:51:47;;;;;;;12.18;5.63;;;;;;;10.71;100.00;99870.03;10376969;28;20131;-71
2023/11/09 12:56:49;;;;;;;14.88;4.85;;;;;;;10.88;100.00;99846.72;10374011;28;20045;-70
2023/11/09 13:01:49;;;;;;;11.82;5.28;;;;;;;10.68;100.00;99848.81;10375077;28;20034;-70
2023/11/09 13:06:49;;;;;;;12.30;5.85;;;;;;;10.49;100.00;99842.53;10374778;28;20389;-70
2023/11/09 13:11:50;;;;;;;8.20;4.93;;;;;;;10.48;100.00;99825.47;10372894;28;20037;-70
2023/11/09 13:16:50;;;;;;;21.08;5.22;;;;;;;10.51;100.00;99837.75;10373224;28;20068;-70
2023/11/09 13:21:52;;;;;;;19.98;5.50;;;;;;;10.59;100.00;99834.75;10356218;28;20113;-70
2023/11/09 13:26:53;;;;;;;13.05;4.72;;;;;;;10.60;100.00;99811.22;10373948;28;20037;-70
2023/11/09 13:31:56;;;;;;;10.45;4.45;;;;;;;10.54;100.00;99806.69;10372558;28;20025;-70
2023/11/09 13:36:58;;;;;;;13.80;4.85;;;;;;;10.67;100.00;99785.72;10356965;28;20388;-71
2023/11/09 13:42:05;;;;;;;13.00;5.50;;;;;;;10.63;100.00;99773.69;10373699;28;20080;-70
2023/11/09 13:47:08;;;;;;;16.27;5.13;;;;;;;10.74;100.00;99758.56;10374604;28;20041;-70
2023/11/09 13:52:15;;;;;;;16.25;5.22;;;;;;;10.65;100.00;99763.44;10373060;28;20053;-70
2023/11/09 13:57:20;;;;;;;20.65;5.28;;;;;;;10.42;100.00;99761.41;10373133;28;20049;-70
2023/11/09 14:02:21;;;;;;;10.98;4.85;;;;;;;10.15;100.00;99773.53;10372035;28;20038;-70
2023/11/09 14:07:31;;;;;;;5.43;3.33;;;;;;;9.68;100.00;99770.38;10374175;28;20042;-71
2023/11/09 14:12:53;;;;;;;0.40;0.40;;;;;;;9.15;100.00;99798.53;10372078;28;20042;-71
2023/11/09 14:17:54;;;;;;;0.52;0.52;;;;;;;8.65;100.00;99795.63;10371217;28;20461;-73
2023/11/09 14:22:54;;;;;;;0.47;0.47;;;;;;;8.37;100.00;99780.50;10371016;28;20140;-73
2023/11/09 14:27:56;;;;;;;0.50;0.50;;;;;;;8.38;100.00;99775.97;10372821;28;20117;-72
2023/11/09 14:33:03;;;;;;;0.50;0.50;;;;;;;8.35;100.00;99762.88;10372115;28;20076;-73
2023/11/09 14:38:04;;;;;;;0.40;0.40;;;;;;;8.39;100.00;99766.81;10370974;28;20119;-73
2023/11/09 14:43:09;;;;;;;0.70;0.70;;;;;;;8.42;100.00;99760.19;10370989;28;20457;-72
2023/11/09 14:48:10;;;;;;;2.03;1.95;;;;;;;8.45;100.00;99739.00;10371244;28;20105;-72
2023/11/09 14:53:19;;;;;;;0.47;0.47;;;;;;;8.46;100.00;99732.59;10370756;28;20061;-73
2023/11/09 14:58:26;;;;;;;0.47;0.47;;;;;;;8.51;100.00;99715.75;10369999;28;20031;-73
2023/11/09 15:03:30;;;;;;;0.50;0.50;;;;;;;8.52;100.00;99695.81;10371225;28;20380;-73
2023/11/09 15:08:31;;;;;;;0.47;0.47;;;;;;;8.39;100.00;99704.78;10369458;28;20030;-72
2023/11/09 15:13:33;;;;;;;0.40;0.40;;;;;;;8.48;100.00;99705.38;10370478;28;20123;-72
2023/11/09 15:18:34;;;;;;;0.65;0.65;;;;;;;8.54;100.00;99701.84;10370565;28;20411;-73
2023/11/09 15:23:34;;;;;;;0.50;0.50;;;;;;;8.54;100.00;99678.38;10372009;28;20041;-74
2023/11/09 15:28:34;;;;;;;0.50;0.50;;;;;;;8.49;100.00;99672.81;10369747;28;20038;-73
2023/11/09 15:33:35;;;;;;;1.33;1.30;;;;;;;8.40;100.00;99649.00;10370611;28;20169;-73
2023/11/09 15:38:38;;;;;;;2.05;1.95;;;;;;;8.34;100.00;99659.53;10369060;28;20449;-72
2023/11/09 15:43:39;;;;;;;0.40;0.40;;;;;;;8.34;100.00;99670.34;10370612;28;20050;-72
2023/11/09 15:48:40;;;;;;;0.30;0.30;;;;;;;8.26;100.00;99669.72;10371298;28;20172;-72
2023/11/09 15:53:42;;;;;;;0.50;0.50;;;;;;;8.16;100.00;99676.41;10370169;28;20389;-72
2023/11/09 15:58:42;;;;;;;0.40;0.40;;;;;;;8.09;100.00;99674.78;10370099;28;20507;-71
2023/11/09 16:03:44;;;;;;;0.50;0.50;;;;;;;8.09;100.00;99670.19;10352729;28;20049;-71
2023/11/09 16:08:45;;;;;;;0.60;0.60;;;;;;;8.09;100.00;99670.19;10371209;28;20030;-71
2023/11/09 16:13:45;;;;;;;0.60;0.60;;;;;;;8.12;100.00;99672.47;10370571;28;20465;-72
2023/11/09 16:18:46;;;;;;;0.50;0.50;;;;;;;8.17;100.00;99663.78;10368667;28;20081;-73
2023/11/09 16:23:47;;;;;;;0.40;0.40;;;;;;;8.14;100.00;99658.81;10374600;28;20045;-72
2023/11/09 16:28:49;;;;;;;0.40;0.40;;;;;;;7.94;100.00;99639.97;10378764;28;20038;-71
2023/11/09 16:33:49;;;;;;;0.40;0.40;;;;;;;7.81;100.00;99645.38;10377405;28;20033;-72
2023/11/09 16:38:50;;;;;;;0.50;0.50;;;;;;;7.71;100.00;99645.81;10359472;28;20089;-72
2023/11/09 16:43:50;;;;;;;0.40;0.40;;;;;;;7.53;100.00;99630.31;10376744;28;20144;-71
2023/11/09 16:48:50;;;;;;;0.40;0.40;;;;;;;7.46;100.00;99641.06;10377036;28;20424;-72
2023/11/09 16:53:51;;;;;;;0.40;0.40;;;;;;;7.42;100.00;99626.38;10375514;28;20070;-72
2023/11/09 16:58:52;;;;;;;0.40;0.40;;;;;;;7.40;100.00;99638.38;10375470;28;20041;-72
2023/11/09 17:03:53;;;;;;;0.40;0.40;;;;;;;7.33;100.00;99651.84;10376174;28;20092;-71
2023/11/09 17:08:54;;;;;;;0.65;0.65;;;;;;;7.26;100.00;99660.97;10374664;28;20033;-72
2023/11/09 17:13:54;;;;;;;0.40;0.40;;;;;;;7.13;100.00;99657.22;10374456;28;20465;-71
2023/11/09 17:18:55;;;;;;;0.50;0.50;;;;;;;7.09;100.00;99649.78;10374939;28;20030;-71
2023/11/09 17:23:56;;;;;;;0.50;0.50;;;;;;;7.06;100.00;99642.94;10373590;28;20092;-71
2023/11/09 17:28:56;;;;;;;1.45;1.42;;;;;;;7.02;100.00;99640.84;10374099;28;20045;-70
2023/11/09 17:33:56;;;;;;;0.50;0.50;;;;;;;7.04;100.00;99636.09;10374217;28;20037;-71
2023/11/09 17:38:58;;;;;;;0.50;0.50;;;;;;;7.09;100.00;99639.84;10374239;28;20042;-71
2023/11/09 17:44:01;;;;;;;0.50;0.50;;;;;;;7.01;100.00;99637.31;10372375;28;20172;-71
2023/11/09 17:49:01;;;;;;;0.50;0.50;;;;;;;7.03;100.00;99637.13;10374655;28;20449;-70
2023/11/09 17:54:03;;;;;;;0.55;0.55;;;;;;;6.94;100.00;99631.13;10373979;28;20054;-71
2023/11/09 17:59:04;;;;;;;0.98;0.98;;;;;;;6.97;100.00;99638.78;10372446;28;20099;-72
2023/11/09 18:04:07;;;;;;;0.40;0.40;;;;;;;6.99;100.00;99629.47;10372948;28;20033;-71
2023/11/09 18:09:07;;;;;;;0.40;0.40;;;;;;;7.03;100.00;99627.19;10370901;28;20034;-71
2023/11/09 18:14:09;;;;;;;0.50;0.50;;;;;;;7.02;100.00;99619.31;10374743;28;20041;-71
2023/11/09 18:19:13;;;;;;;0.43;0.43;;;;;;;7.06;100.00;99616.03;10389648;28;20037;-71
2023/11/09 18:24:13;;;;;;;0.73;0.73;;;;;;;7.18;100.00;99613.56;10371413;28;20058;-71
2023/11/09 18:29:14;;;;;;;1.23;1.23;;;;;;;7.19;100.00;99604.44;10372379;28;20120;-71
2023/11/09 18:34:15;;;;;;;0.43;0.43;;;;;;;7.13;100.00;99592.63;10372475;28;20088;-73
2023/11/09 18:39:15;;;;;;;0.55;0.55;;;;;;;7.13;100.00;99592.63;10371688;28;20414;-71
2023/11/09 18:44:16;;;;;;;2.95;2.85;;;;;;;7.11;100.00;99581.22;10370365;28;20045;-71
2023/11/09 18:49:17;;;;;;;0.40;0.40;;;;;;;7.09;100.00;99587.88;10371175;28;20105;-71
2023/11/09 18:54:18;;;;;;;0.60;0.60;;;;;;;7.07;100.00;99577.28;10369997;28;20096;-71
2023/11/09 18:59:18;;;;;;;0.50;0.50;;;;;;;7.04;100.00;99577.69;10370305;28;20433;-71
2023/11/09 19:04:19;;;;;;;3.28;3.05;;;;;;;7.08;100.00;99581.63;10354024;28;20069;-71
2023/11/09 19:09:21;;;;;;;1.50;1.50;;;;;;;7.12;100.00;99587.44;10370761;28;20168;-71
2023/11/09 19:14:21;;;;;;;0.40;0.40;;;;;;;7.12;100.00;99593.66;10371281;28;20068;-70
2023/11/09 19:19:22;;;;;;;1.48;1.40;;;;;;;7.16;100.00;99589.50;10370953;28;20045;-71
2023/11/09 19:24:22;;;;;;;0.50;0.50;;;;;;;7.20;100.00;99596.13;10370627;28;20070;-71
2023/11/09 19:29:23;;;;;;;0.47;0.47;;;;;;;7.22;100.00;99591.38;10369129;28;20042;-71
2023/11/09 19:34:23;;;;;;;0.50;0.50;;;;;;;7.23;100.00;99586.81;10371407;28;20041;-72
2023/11/09 19:39:24;;;;;;;0.50;0.50;;;;;;;7.23;100.00;99570.66;10370885;28;20045;-71
2023/11/09 19:44:24;;;;;;;0.50;0.50;;;;;;;7.18;100.00;99576.69;10369464;28;20042;-71
2023/11/09 19:49:25;;;;;;;0.60;0.60;;;;;;;7.19;100.00;99572.94;10370050;28;20030;-73
2023/11/09 19:54:26;;;;;;;0.47;0.47;;;;;;;7.18;100.00;99582.06;10369843;28;20058;-72
2023/11/09 19:59:30;;;;;;;0.50;0.50;;;;;;;7.14;100.00;99580.81;10375948;28;20366;-72
2023/11/09 20:04:31;;;;;;;0.40;0.40;;;;;;;7.03;100.00;99567.97;10377834;28;20034;-72
2023/11/09 20:09:32;;;;;;;0.50;0.50;;;;;;;6.99;100.00;99572.13;10377362;28;20053;-74
2023/11/09 20:14:32;;;;;;;0.50;0.50;;;;;;;6.88;100.00;99580.81;10377494;28;20065;-72
2023/11/09 20:19:33;;;;;;;0.55;0.55;;;;;;;6.79;100.00;99584.72;10377749;28;20053;-70
2023/11/09 20:24:34;;;;;;;0.57;0.57;;;;;;;6.81;100.00;99575.41;10375904;28;20032;-71
2023/11/09 20:29:34;;;;;;;0.40;0.40;;;;;;;6.68;100.00;99578.09;10376482;28;20455;-71
2023/11/09 20:34:35;;;;;;;0.50;0.50;;;;;;;6.67;100.00;99574.59;10374829;28;20069;-70
2023/11/09 20:39:39;;;;;;;1.30;1.20;;;;;;;6.68;100.00;99570.03;10376254;28;20038;-70
2023/11/09 20:44:40;;;;;;;0.68;0.68;;;;;;;6.68;100.00;99568.16;10376327;28;20038;-71
2023/11/09 20:49:41;;;;;;;2.53;1.88;;;;;;;6.62;100.00;99568.16;10375292;28;20038;-71
2023/11/09 20:54:44;;;;;;;8.95;3.35;;;;;;;6.56;100.00;99577.84;10376784;28;20053;-71
2023/11/09 20:59:45;;;;;;;4.88;2.03;;;;;;;6.53;100.00;99587.16;10375084;28;20108;-70
2023/11/09 21:04:47;;;;;;;4.72;1.70;;;;;;;6.49;100.00;99575.16;10375678;28;20037;-70
2023/11/09 21:09:47;;;;;;;1.83;1.13;;;;;;;6.53;100.00;99587.16;10374530;28;20057;-72
2023/11/09 21:14:47;;;;;;;2.05;1.35;;;;;;;6.48;100.00;99580.75;10373332;28;20099;-70
2023/11/09 21:19:48;;;;;;;2.65;1.35;;;;;;;6.51;100.00;99572.28;10373216;28;20034;-70
2023/11/09 21:24:51;;;;;;;5.40;2.53;;;;;;;6.44;100.00;99572.25;10374423;28;20038;-70
2023/11/09 21:29:51;;;;;;;4.90;1.85;;;;;;;6.37;100.00;99557.13;10375691;28;20125;-70
2023/11/09 21:34:52;;;;;;;3.88;1.95;;;;;;;6.36;100.00;99558.19;10374481;28;20056;-71
2023/11/09 21:39:53;;;;;;;2.00;1.73;;;;;;;6.28;100.00;99556.47;10373061;28;20381;-71
2023/11/09 21:44:53;;;;;;;2.65;1.63;;;;;;;6.17;100.00;99547.16;10374819;28;20033;-70
2023/11/09 21:49:55;;;;;;;1.73;1.63;;;;;;;6.20;100.00;99536.00;10372198;28;20045;-70
2023/11/09 21:54:57;;;;;;;4.72;1.83;;;;;;;6.24;100.00;99547.19;10373657;28;20062;-71
2023/11/09 21:59:57;;;;;;;1.92;1.67;;;;;;;6.24;100.00;99537.25;10373333;28;20050;-71
2023/11/09 22:04:58;;;;;;;5.15;1.90;;;;;;;6.19;100.00;99523.59;10373402;28;20386;-71
2023/11/09 22:10:00;;;;;;;3.53;1.40;;;;;;;6.16;100.00;99518.63;10371836;28;20045;-70
2023/11/09 22:15:01;;;;;;;3.33;1.50;;;;;;;6.11;100.00;99513.03;10371520;28;20134;-70
2023/11/09 22:20:01;;;;;;;9.32;2.08;;;;;;;6.13;100.00;99496.72;10372194;28;20030;-70
2023/11/09 22:25:08;;;;;;;4.30;1.75;;;;;;;6.04;100.00;99514.88;10373933;28;20472;-70
2023/11/09 22:30:08;;;;;;;2.25;1.65;;;;;;;6.02;100.00;99520.44;10372117;28;20392;-70
2023/11/09 22:35:09;;;;;;;2.55;2.25;;;;;;;6.04;100.00;99514.88;10371540;28;20039;-71
2023/11/09 22:40:10;;;;;;;5.53;1.55;;;;;;;6.08;100.00;99516.13;10371785;28;20100;-69
2023/11/09 22:45:11;;;;;;;1.95;1.75;;;;;;;6.08;100.00;99508.06;10370135;28;20061;-69
2023/11/09 22:50:12;;;;;;;4.88;1.98;;;;;;;6.10;100.00;99505.19;10370520;28;20359;-70
2023/11/09 22:55:13;;;;;;;4.57;1.88;;;;;;;6.15;100.00;99495.44;10372515;28;20081;-70
2023/11/09 23:05:33;;;;;;;1.25;1.25;;;;;;;6.12;100.00;99492.34;10370870;28;20038;-69
2023/11/09 23:10:33;;;;;;;6.15;2.30;;;;;;;6.25;100.00;99493.22;10353330;28;20034;-71
2023/11/09 23:15:34;;;;;;;3.63;2.55;;;;;;;6.23;100.00;99495.28;10371701;28;20034;-70
2023/11/09 23:20:35;;;;;;;1.85;1.35;;;;;;;6.20;100.00;99470.66;10371615;28;20393;-72
2023/11/09 23:25:35;;;;;;;4.53;2.20;;;;;;;6.20;100.00;99478.72;10352974;28;20388;-72